地図

経路データ

SID SEASON NUMBER BASIN SUBBASIN NAME ISO_TIME NATURE LAT LON WMO_WIND WMO_PRES WMO_AGENCY TRACK_TYPE DIST2LAND LANDFALL IFLAG USA_AGENCY USA_ATCF_ID USA_LAT USA_LON USA_RECORD USA_STATUS USA_WIND USA_PRES USA_SSHS USA_R34_NE USA_R34_SE USA_R34_SW USA_R34_NW USA_R50_NE USA_R50_SE USA_R50_SW USA_R50_NW USA_R64_NE USA_R64_SE USA_R64_SW USA_R64_NW USA_POCI USA_ROCI USA_RMW USA_EYE TOKYO_LAT TOKYO_LON TOKYO_GRADE TOKYO_WIND TOKYO_PRES TOKYO_R50_DIR TOKYO_R50_LONG TOKYO_R50_SHORT TOKYO_R30_DIR TOKYO_R30_LONG TOKYO_R30_SHORT TOKYO_LAND CMA_LAT CMA_LON CMA_CAT CMA_WIND CMA_PRES HKO_LAT HKO_LON HKO_CAT HKO_WIND HKO_PRES NEWDELHI_LAT NEWDELHI_LON NEWDELHI_GRADE NEWDELHI_WIND NEWDELHI_PRES NEWDELHI_CI NEWDELHI_DP NEWDELHI_POCI REUNION_LAT REUNION_LON REUNION_TYPE REUNION_WIND REUNION_PRES REUNION_TNUM REUNION_CI REUNION_RMW REUNION_R34_NE REUNION_R34_SE REUNION_R34_SW REUNION_R34_NW REUNION_R50_NE REUNION_R50_SE REUNION_R50_SW REUNION_R50_NW REUNION_R64_NE REUNION_R64_SE REUNION_R64_SW REUNION_R64_NW BOM_LAT BOM_LON BOM_TYPE BOM_WIND BOM_PRES BOM_TNUM BOM_CI BOM_RMW BOM_R34_NE BOM_R34_SE BOM_R34_SW BOM_R34_NW BOM_R50_NE BOM_R50_SE BOM_R50_SW BOM_R50_NW BOM_R64_NE BOM_R64_SE BOM_R64_SW BOM_R64_NW BOM_ROCI BOM_POCI BOM_EYE BOM_POS_METHOD BOM_PRES_METHOD NADI_LAT NADI_LON NADI_CAT NADI_WIND NADI_PRES WELLINGTON_LAT WELLINGTON_LON WELLINGTON_WIND WELLINGTON_PRES DS824_LAT DS824_LON DS824_STAGE DS824_WIND DS824_PRES TD9636_LAT TD9636_LON TD9636_STAGE TD9636_WIND TD9636_PRES TD9635_LAT TD9635_LON TD9635_WIND TD9635_PRES TD9635_ROCI NEUMANN_LAT NEUMANN_LON NEUMANN_CLASS NEUMANN_WIND NEUMANN_PRES MLC_LAT MLC_LON MLC_CLASS MLC_WIND MLC_PRES USA_GUST BOM_GUST BOM_GUST_PER REUNION_GUST REUNION_GUST_PER USA_SEAHGT USA_SEARAD_NE USA_SEARAD_SE USA_SEARAD_SW USA_SEARAD_NW STORM_SPEED STORM_DIR
2001060S19223 2001 13 SP MM RITA 2001-02-28 18:00:00 TS -19.3000 -136.800 main 3817 3817 O___________O_ jtwc_sh SH142001 -19.3000 -136.800 TD 25 -1 -19.3000 -136.800 TC 25 7 103
2001060S19223 2001 13 SP MM RITA 2001-02-28 20:00:00 TS -19.3518 -136.560 main 3838 3849 P_______O___P_ SH142001 -19.3648 -136.626 TD 26 -1 -19.3000 -136.300 35 998 -19.3648 -136.626 TC 26 6 110
2001060S19223 2001 13 SP MM RITA 2001-02-28 21:00:00 TS -19.4033 -136.500 main 3849 3849 P_______P___P_ SH142001 -19.3976 -136.540 TD 27 -1 -19.4203 -136.379 35 997 -19.3976 -136.540 TC 27 4 140
2001060S19223 2001 13 SP MM RITA 2001-03-01 00:00:00 TS -19.5667 -136.367 35 995 nadi main 3861 3861 O_______O___O_ jtwc_sh SH142001 -19.5000 -136.300 TD 30 -1 -19.7000 -136.500 35 995 -19.7000 -136.500 35 995 -19.5000 -136.300 TC 30 4 130
2001060S19223 2001 13 SP MM RITA 2001-03-01 03:00:00 TS -19.6632 -136.168 main 3883 3883 P______IP___P_ SH142001 -19.6075 -136.092 TD 30 -1 -19.7027 -136.205 35 995 -19.7549 -136.302 35 995 -19.6075 -136.092 TC 30 4 109
2001060S19223 2001 13 SP MM RITA 2001-03-01 06:00:00 TS -19.7000 -135.947 35 995 nadi main 3914 3914 O_______O___O_ jtwc_sh SH142001 -19.7000 -135.900 TD 30 -1 -19.7000 -136.000 35 995 -19.7000 -136.000 35 995 -19.7000 -135.900 TC 30 3 100
2001060S19223 2001 13 SP MM RITA 2001-03-01 09:00:00 TS -19.7249 -135.811 main 3924 3924 P______IP___P_ SH142001 -19.7575 -135.700 TD 30 -1 -19.6923 -135.922 35 995 -19.6923 -135.922 35 995 -19.7575 -135.700 TC 30 3 100
2001060S19223 2001 13 SP MM RITA 2001-03-01 12:00:00 TS -19.7500 -135.650 35 995 nadi main 3935 3935 O_______O___O_ jtwc_sh SH142001 -19.8000 -135.500 TD 30 -1 -19.7000 -135.800 35 995 -19.7000 -135.800 35 995 -19.8000 -135.500 TC 30 4 96
2001060S19223 2001 13 SP MM RITA 2001-03-01 15:00:00 TS -19.7739 -135.342 main 3977 3977 P______IP___P_ SH142001 -19.8275 -135.292 TD 30 -1 -19.7204 -135.400 35 995 -19.7204 -135.400 35 995 -19.8275 -135.277 TC 30 6 100
2001060S19223 2001 13 SP MM RITA 2001-03-01 18:00:00 TS -19.8500 -135.050 35 995 nadi main 3998 3998 O_______O___O_ jtwc_sh SH142001 -19.9000 -135.100 TD 30 -1 -19.8000 -135.000 35 995 -19.8000 -135.000 35 995 -19.9000 -135.100 TC 30 5 122
2001060S19223 2001 13 SP MM RITA 2001-03-01 21:00:00 TS -20.0274 -134.916 main 4021 4021 P______IP___P_ SH142001 -20.0775 -134.920 TD 32 -1 -19.9773 -134.855 40 991 -19.9773 -134.855 40 991 -20.0775 -135.035 TC 32 4 155
2001060S19223 2001 13 SP MM RITA 2001-03-02 00:00:00 TS -20.2500 -134.850 45 987 nadi main 4022 4023 O_______O___O_ jtwc_sh SH142001 -20.3000 -134.800 TS 35 0 -20.2000 -134.800 45 987 -20.2000 -134.800 45 987 -20.3000 -135.000 TC 35 5 160
2001060S19223 2001 13 SP MM RITA 2001-03-02 03:00:00 TS -20.4519 -134.753 main 4035 4035 P______IP___P_ SH142001 -20.5000 -134.770 TS 35 0 -20.4075 -134.678 45 987 -20.4075 -134.678 45 987 -20.4925 -134.885 TC 35 4 161
2001060S19223 2001 13 SP MM RITA 2001-03-02 06:00:00 TS -20.6500 -134.700 45 987 nadi main 4046 4047 O_______O___O_ jtwc_sh SH142001 -20.7000 -134.800 TS 35 0 -20.6000 -134.600 45 987 -20.6000 -134.600 45 987 -20.7000 -134.800 TC 35 4 175
2001060S19223 2001 13 SP MM RITA 2001-03-02 09:00:00 TS -20.8131 -134.720 main 4048 4039 P______IP___P_ SH142001 -20.8775 -134.835 TS 35 0 -20.7200 -134.613 40 991 -20.7200 -134.613 42 988 -20.9350 -134.820 TC 35 4 195
2001060S19223 2001 13 SP MM RITA 2001-03-02 12:00:00 TS -21.0250 -134.800 35 995 nadi main 4040 4032 O_______O___O_ jtwc_sh SH142001 -21.1000 -134.900 TS 35 0 -20.9000 -134.700 35 995 -20.9000 -134.700 40 990 -21.2000 -134.900 TC 35 6 200
2001060S19223 2001 13 SP MM RITA 2001-03-02 15:00:00 TS -21.3332 -134.919 main 4033 4023 P______IP___P_ SH142001 -21.4200 -135.000 TS 35 0 -21.2176 -134.842 35 995 -21.2176 -134.842 40 990 -21.4775 -134.993 TC 35 8 198
2001060S19223 2001 13 SP MM RITA 2001-03-02 18:00:00 TS -21.7500 -135.050 35 995 nadi main 4017 4017 O_______O___O_ jtwc_sh SH142001 -21.8000 -135.100 TS 35 0 -21.7000 -135.000 35 995 -21.7000 -135.000 40 990 -21.8000 -135.100 TC 35 10 192
2001060S19223 2001 13 SP MM RITA 2001-03-02 21:00:00 TS -22.3131 -135.136 main 4025 4016 P______IP___P_ SH142001 -22.1925 -135.150 TS 35 0 -22.4374 -135.093 37 992 -22.4374 -135.093 40 990 -22.1850 -135.207 TC 35 11 188
2001060S19223 2001 13 SP MM RITA 2001-03-03 00:00:00 TS -22.8500 -135.225 40 990 nadi main 4022 4013 O_______O___O_ jtwc_sh SH142001 -22.6000 -135.200 TS 35 0 -23.1000 -135.200 40 990 -23.1000 -135.200 40 990 -22.6000 -135.300 TC 35 9 193
2001060S19223 2001 13 SP MM RITA 2001-03-03 03:00:00 TS -23.1663 -135.355 main 4008 3999 P______IP___P_ SH142001 -23.0075 -135.278 TS 35 0 -23.3251 -135.415 40 990 -23.3250 -135.393 40 990 -23.0074 -135.335 TC 35 6 205
2001060S19223 2001 13 SP MM RITA 2001-03-03 06:00:00 TS -23.4000 -135.500 40 990 nadi main 4001 3993 O_______O___O_ jtwc_sh SH142001 -23.4000 -135.400 TS 35 0 -23.4000 -135.600 40 990 -23.4000 -135.600 40 990 -23.4000 -135.400 TC 35 6 206
2001060S19223 2001 13 SP MM RITA 2001-03-03 09:00:00 TS -23.6750 -135.626 main 3996 3980 P______IP___P_ SH142001 -23.7575 -135.585 TS 37 0 -23.5924 -135.585 40 990 -23.5925 -135.758 40 990 -23.7575 -135.577 TC 35 6 205
2001060S19223 2001 13 SP MM RITA 2001-03-03 12:00:00 TS -23.9500 -135.775 40 990 nadi main 3980 3966 O_______O___O_ jtwc_sh SH142001 -24.1000 -135.800 TS 40 0 -23.8000 -135.600 40 990 -23.8000 -135.900 40 990 -24.1000 -135.800 TC 35 6 213
2001060S19223 2001 13 SP MM RITA 2001-03-03 15:00:00 TS -24.1970 -135.993 main 3966 3950 P______IP___P_ SH142001 -24.4350 -136.015 TS 40 0 -23.9628 -135.885 40 990 -23.9625 -136.058 40 990 -24.4275 -136.015 TC 37 7 215
2001060S19223 2001 13 SP MM RITA 2001-03-03 18:00:00 TS -24.5000 -136.200 40 990 nadi main 3952 3944 O_______O___O_ jtwc_sh SH142001 -24.8000 -136.200 TS 40 0 -24.2000 -136.200 40 990 -24.2000 -136.200 40 990 -24.8000 -136.200 TC 40 8 202
2001060S19223 2001 13 SP MM RITA 2001-03-03 21:00:00 TS -24.9268 -136.324 main 3951 3945 P______IP___P_ SH142001 -25.2199 -136.308 TS 40 0 -24.6124 -136.375 40 990 -24.5975 -136.308 40 990 -25.2774 -136.308 TC 40 10 191
2001060S19223 2001 13 SP MM RITA 2001-03-04 00:00:00 TS -25.4467 -136.400 40 990 wellington main 3952 3952 O_______O___O_ jtwc_sh SH142001 -25.7000 -136.400 TS 40 0 -25.1000 -136.400 40 990 -25.1000 -136.400 40 990 -25.8000 -136.400 TC 40 11 188
2001060S19223 2001 13 SP MM RITA 2001-03-04 03:00:00 TS -25.9840 -136.491 main 3957 3955 P______IP___P_ SH142001 -26.2425 -136.542 TS 40 0 -25.5627 -136.251 42 988 -25.6200 -136.485 42 988 -26.3000 -136.565 TC 40 11 190
2001060S19223 2001 13 SP MM RITA 2001-03-04 06:00:00 TS -26.5538 -136.615 45 987 wellington main 3963 3955 O_______O___O_ jtwc_sh SH142001 -26.8000 -136.700 TS 40 0 -26.0000 -136.000 45 987 -26.2000 -136.600 45 987 -26.8000 -136.700 TC 40 12 194
2001060S19223 2001 13 SP MM RITA 2001-03-04 09:00:00 TS -27.1400 -136.811 main 3958 3954 P_______P___P_ SH142001 -27.3000 -136.887 TS 37 0 -26.8276 -136.829 45 986 -27.2925 -136.715 TC 37 12 192
2001060S19223 2001 13 SP MM RITA 2001-03-04 12:00:00 TS -27.7000 -136.900 45 986 wellington main 3966 3966 O_______O___O_ jtwc_sh SH142001 -27.8000 -137.000 TS 35 0 -27.5000 -137.000 45 986 -27.8000 -136.700 TC 35 11 185
2001060S19223 2001 13 SP MM RITA 2001-03-04 15:00:00 TS -28.2749 -136.919 main 3984 3984 P_______P___P_ SH142001 -28.3124 -136.975 TS 32 -1 -28.1998 -136.982 42 988 -28.3124 -136.801 TC 32 12 176
2001060S19223 2001 13 SP MM RITA 2001-03-04 18:00:00 TS -28.9000 -136.800 40 990 wellington main 4013 4013 O_______O___O_ jtwc_sh SH142001 -28.9000 -136.800 TD 30 -1 -28.9000 -136.800 40 990 -28.9000 -136.800 TC 30 14 164
2001060S19223 2001 13 SP MM RITA 2001-03-04 21:00:00 TS -29.6044 -136.488 main 4064 4064 P_______P___P_ SH142001 -29.6351 -136.488 TD 30 -1 -29.5428 -136.466 37 991 -29.6352 -136.511 TC 30 16 157
2001060S19223 2001 13 SP MM RITA 2001-03-05 00:00:00 TS -30.3200 -136.100 35 993 wellington main 4125 4125 O_______O___O_ jtwc_sh SH142001 -30.4000 -136.100 TD 30 -1 -30.2000 -136.100 35 993 -30.4000 -136.100 TC 30 15 157
2001060S19223 2001 13 SP MM RITA 2001-03-05 03:00:00 TS -30.9737 -135.805 main 4177 4177 P_______P___P_ SH142001 -31.0800 -135.738 TD 30 -1 -30.8674 -135.876 37 994 -31.0799 -135.730 TC 30 15 163
2001060S19223 2001 13 SP MM RITA 2001-03-05 06:00:00 TS -31.7000 -135.600 40 996 wellington main 4188 4152 O_______O___O_ jtwc_sh SH142001 -31.7000 -135.400 TD 30 -1 -31.7000 -135.700 40 996 -31.7000 -135.400 TC 30 19 171
2001060S19223 2001 13 SP MM RITA 2001-03-05 09:00:00 NR -32.8626 -135.464 main 4148 4123 ________P_____ SH142001 TD -1 -32.8626 -135.464 37 997 TC 24 174
2001060S19223 2001 13 SP MM RITA 2001-03-05 12:00:00 NR -34.1000 -135.300 35 999 wellington main 4119 4084 ________O_____ -34.1000 -135.300 35 999 23 178
2001060S19223 2001 13 SP MM RITA 2001-03-05 15:00:00 NR -35.1374 -135.347 main 4084 4045 ________P_____ -35.1374 -135.347 35 999 20 182
2001060S19223 2001 13 SP MM RITA 2001-03-05 18:00:00 NR -36.1000 -135.400 35 1000 wellington main 4042 4022 ________O_____ -36.1000 -135.400 35 1000 19 178
2001060S19223 2001 13 SP MM RITA 2001-03-05 21:00:00 NR -37.0502 -135.266 main 4019 3956 ________P_____ -37.0502 -135.266 35 1000 19 170
2001060S19223 2001 13 SP MM RITA 2001-03-06 00:00:00 NR -38.0000 -135.000 35 1000 wellington main 3944 ________O_____ -38.0000 -135.000 35 1000 19 168

デジタル台風データ・検索

IBTrACS Databaseについて

本データベースは、米国NOAAが公開する1842年以降の世界の熱帯低気圧のベストトラックデータアーカイブInternational Best Track Archive for Climate Stewardship (IBTrACS)を、ウェブで閲覧しやすい形式に変換したものです。

最終更新日:2021-10-25